createdAt,value
2019-02-04T00:00:06.698Z,-0.8
2019-02-04T00:15:02.985Z,-0.8
2019-02-04T00:30:02.489Z,-0.8
2019-02-04T00:45:02.981Z,-0.8
2019-02-04T01:00:03.284Z,-0.8
2019-02-04T01:15:02.534Z,-0.8
2019-02-04T01:30:03.015Z,-0.9
2019-02-04T01:45:03.240Z,-1
2019-02-04T02:00:02.657Z,-1.1
2019-02-04T02:15:02.984Z,-1.1
2019-02-04T02:30:03.374Z,-1.1
2019-02-04T02:45:03.172Z,-1
2019-02-04T03:00:02.825Z,-1
2019-02-04T03:15:03.262Z,-1
2019-02-04T03:30:02.580Z,-1
2019-02-04T03:45:02.891Z,-1
2019-02-04T04:00:03.177Z,-0.9
2019-02-04T04:15:02.461Z,-0.9
2019-02-04T04:30:03.054Z,-0.9
2019-02-04T04:45:03.339Z,-0.9
2019-02-04T05:00:02.687Z,-0.9
2019-02-04T05:15:03.022Z,-0.9
2019-02-04T05:30:02.673Z,-0.9
2019-02-04T05:45:03.236Z,-0.9
2019-02-04T06:00:02.583Z,-0.9
2019-02-04T06:15:02.811Z,-0.9
2019-02-04T06:30:02.613Z,-0.9
2019-02-04T06:45:02.974Z,-0.9
2019-02-04T07:00:03.263Z,-0.9
2019-02-04T07:15:02.653Z,-0.9
2019-02-04T07:30:02.944Z,-0.6
2019-02-04T07:45:03.305Z,-0.6
2019-02-04T08:00:02.670Z,-0.4
2019-02-04T08:15:02.959Z,-0.5
2019-02-04T08:30:02.657Z,-0.2
2019-02-04T08:45:03.308Z,-0.2
2019-02-04T09:00:02.574Z,-0.4
2019-02-04T09:15:02.920Z,0.4
2019-02-04T09:30:03.305Z,0.7
2019-02-04T09:45:15.872Z,0.9
2019-02-04T10:00:03.408Z,1.1
2019-02-04T10:15:02.834Z,1.3
2019-02-04T10:30:03.181Z,1.5
2019-02-04T10:45:02.641Z,1.5
2019-02-04T11:00:03.103Z,1.6
2019-02-04T11:15:03.155Z,1.5
2019-02-04T11:30:02.693Z,2
2019-02-04T11:45:03.141Z,1.9
2019-02-04T12:00:03.511Z,1.9
2019-02-04T12:15:02.750Z,2.2
2019-02-04T12:30:03.385Z,2.3
2019-02-04T12:47:41.066Z,3.1
2019-02-04T13:00:02.785Z,1.8
2019-02-04T13:15:03.002Z,1.7
2019-02-04T13:30:03.302Z,1.8
2019-02-04T13:45:02.615Z,2.1
2019-02-04T14:00:02.982Z,2.1
2019-02-04T14:15:03.214Z,2.4
2019-02-04T14:30:02.574Z,1.8
2019-02-04T14:45:02.948Z,1.3
2019-02-04T15:00:03.186Z,1.7
2019-02-04T15:15:02.697Z,1.3
2019-02-04T15:33:06.101Z,0.8
2019-02-04T15:45:03.224Z,0.4
2019-02-04T16:00:03.202Z,0.2
2019-02-04T16:15:02.570Z,-0.3
2019-02-04T16:30:03.099Z,-0.6
2019-02-04T16:45:02.500Z,-1
2019-02-04T17:00:02.961Z,-1.1
2019-02-04T17:15:03.268Z,-1.4
2019-02-04T17:30:02.657Z,-1.8
2019-02-04T17:45:02.436Z,-1.8
2019-02-04T18:00:03.158Z,-2.4
2019-02-04T18:15:03.641Z,-2.2
2019-02-04T18:30:02.911Z,-2.2
2019-02-04T18:45:03.341Z,-2.4
2019-02-04T19:00:02.894Z,-2.7
2019-02-04T19:15:03.092Z,-2.8
2019-02-04T19:30:03.388Z,-3
2019-02-04T19:45:02.673Z,-3
2019-02-04T20:00:02.966Z,-3.2
2019-02-04T20:15:03.299Z,-3.9
2019-02-04T20:30:02.995Z,-4.6
2019-02-04T20:45:03.169Z,-4.8
2019-02-04T21:00:03.468Z,-4.4
2019-02-04T21:15:02.973Z,-4.2
2019-02-04T21:30:02.726Z,-3.9
2019-02-04T21:45:02.939Z,-4.6
2019-02-04T22:00:04.953Z,-5.7
2019-02-04T22:15:03.455Z,-5.6
2019-02-04T22:30:02.887Z,-4.6
2019-02-04T22:45:02.597Z,-4.5
2019-02-04T23:00:03.044Z,-4.6
2019-02-04T23:15:03.296Z,-4.3
2019-02-04T23:30:02.832Z,-4.8
2019-02-04T23:45:03.135Z,-5
